sensor_id;sensor_type;location;lat;lon;timestamp;pressure;altitude;pressure_sealevel;temperature;humidity
72921;BME280;61064;51.654;5.476;2023-06-14T00:01:38;101416.97;;;20.65;40.00
72921;BME280;61064;51.654;5.476;2023-06-14T00:04:04;101426.94;;;20.63;39.97
72921;BME280;61064;51.654;5.476;2023-06-14T00:06:34;101419.91;;;20.56;39.95
72921;BME280;61064;51.654;5.476;2023-06-14T00:08:59;101417.31;;;20.52;40.15
72921;BME280;61064;51.654;5.476;2023-06-14T00:11:25;101422.78;;;20.50;39.92
72921;BME280;61064;51.654;5.476;2023-06-14T00:13:52;101426.53;;;20.45;39.99
72921;BME280;61064;51.654;5.476;2023-06-14T00:16:17;101431.97;;;20.43;39.98
72921;BME280;61064;51.654;5.476;2023-06-14T00:18:44;101421.28;;;20.39;40.07
72921;BME280;61064;51.654;5.476;2023-06-14T00:21:10;101431.22;;;20.37;39.96
72921;BME280;61064;51.654;5.476;2023-06-14T00:23:35;101428.66;;;20.29;39.88
72921;BME280;61064;51.654;5.476;2023-06-14T00:26:00;101429.56;;;20.29;39.85
72921;BME280;61064;51.654;5.476;2023-06-14T00:28:26;101426.09;;;20.23;39.77
72921;BME280;61064;51.654;5.476;2023-06-14T00:30:51;101429.78;;;20.20;39.72
72921;BME280;61064;51.654;5.476;2023-06-14T00:33:16;101436.19;;;20.16;39.76
72921;BME280;61064;51.654;5.476;2023-06-14T00:35:42;101431.84;;;20.09;39.69
72921;BME280;61064;51.654;5.476;2023-06-14T00:38:07;101442.78;;;20.05;39.71
72921;BME280;61064;51.654;5.476;2023-06-14T00:40:32;101439.22;;;20.03;39.85
72921;BME280;61064;51.654;5.476;2023-06-14T00:43:00;101436.53;;;20.01;39.82
72921;BME280;61064;51.654;5.476;2023-06-14T00:45:25;101431.25;;;19.95;39.84
72921;BME280;61064;51.654;5.476;2023-06-14T00:47:51;101434.94;;;19.92;39.67
72921;BME280;61064;51.654;5.476;2023-06-14T00:50:20;101434.19;;;19.86;39.64
72921;BME280;61064;51.654;5.476;2023-06-14T00:52:46;101431.59;;;19.81;39.73
72921;BME280;61064;51.654;5.476;2023-06-14T00:55:11;101438.03;;;19.76;40.02
72921;BME280;61064;51.654;5.476;2023-06-14T00:57:36;101433.53;;;19.75;40.01
72921;BME280;61064;51.654;5.476;2023-06-14T01:00:03;101443.56;;;19.70;39.88
72921;BME280;61064;51.654;5.476;2023-06-14T01:02:29;101440.94;;;19.67;40.11
72921;BME280;61064;51.654;5.476;2023-06-14T01:04:55;101437.47;;;19.60;40.14
72921;BME280;61064;51.654;5.476;2023-06-14T01:10:35;101444.00;;;19.50;40.12
72921;BME280;61064;51.654;5.476;2023-06-14T01:15:43;101442.34;;;19.40;40.47
72921;BME280;61064;51.654;5.476;2023-06-14T01:18:09;101444.22;;;19.36;40.36
72921;BME280;61064;51.654;5.476;2023-06-14T01:20:44;101440.63;;;19.36;40.45
72921;BME280;61064;51.654;5.476;2023-06-14T01:23:16;101442.56;;;19.29;40.29
72921;BME280;61064;51.654;5.476;2023-06-14T01:25:42;101448.00;;;19.28;40.32
72921;BME280;61064;51.654;5.476;2023-06-14T01:28:10;101441.75;;;19.24;40.56
72921;BME280;61064;51.654;5.476;2023-06-14T01:30:40;101446.34;;;19.19;40.45
72921;BME280;61064;51.654;5.476;2023-06-14T01:33:17;101449.06;;;19.18;40.76
72921;BME280;61064;51.654;5.476;2023-06-14T01:35:46;101447.31;;;19.17;40.59
72921;BME280;61064;51.654;5.476;2023-06-14T01:38:13;101452.78;;;19.12;40.52
72921;BME280;61064;51.654;5.476;2023-06-14T01:40:40;101449.25;;;19.10;40.62
72921;BME280;61064;51.654;5.476;2023-06-14T01:43:06;101452.88;;;19.07;40.57
72921;BME280;61064;51.654;5.476;2023-06-14T01:45:33;101452.94;;;19.04;40.91
72921;BME280;61064;51.654;5.476;2023-06-14T01:47:59;101449.38;;;19.02;40.93
72921;BME280;61064;51.654;5.476;2023-06-14T01:50:28;101450.34;;;19.00;41.02
72921;BME280;61064;51.654;5.476;2023-06-14T01:52:53;101456.56;;;19.02;40.83
72921;BME280;61064;51.654;5.476;2023-06-14T01:55:19;101453.06;;;18.98;41.01
72921;BME280;61064;51.654;5.476;2023-06-14T01:57:47;101448.56;;;18.97;41.13
72921;BME280;61064;51.654;5.476;2023-06-14T02:00:13;101445.06;;;18.94;41.12
72921;BME280;61064;51.654;5.476;2023-06-14T02:02:40;101446.94;;;18.89;41.00
72921;BME280;61064;51.654;5.476;2023-06-14T02:05:05;101459.53;;;18.88;41.15
72921;BME280;61064;51.654;5.476;2023-06-14T02:07:31;101453.34;;;18.83;41.34
72921;BME280;61064;51.654;5.476;2023-06-14T02:09:56;101456.06;;;18.80;41.32
72921;BME280;61064;51.654;5.476;2023-06-14T02:12:22;101454.38;;;18.75;41.41
72921;BME280;61064;51.654;5.476;2023-06-14T02:14:47;101448.13;;;18.73;41.52
72921;BME280;61064;51.654;5.476;2023-06-14T02:17:14;101447.28;;;18.69;41.62
72921;BME280;61064;51.654;5.476;2023-06-14T02:19:40;101447.28;;;18.69;41.71
72921;BME280;61064;51.654;5.476;2023-06-14T02:22:05;101448.31;;;18.62;41.68
72921;BME280;61064;51.654;5.476;2023-06-14T02:24:31;101453.66;;;18.63;41.78
72921;BME280;61064;51.654;5.476;2023-06-14T02:26:56;101453.78;;;18.57;41.93
72921;BME280;61064;51.654;5.476;2023-06-14T02:29:21;101449.34;;;18.55;41.95
72921;BME280;61064;51.654;5.476;2023-06-14T02:31:47;101457.41;;;18.53;41.91
72921;BME280;61064;51.654;5.476;2023-06-14T02:34:13;101454.72;;;18.52;42.10
72921;BME280;61064;51.654;5.476;2023-06-14T02:36:39;101455.72;;;18.48;42.17
72921;BME280;61064;51.654;5.476;2023-06-14T02:39:07;101454.00;;;18.44;42.10
72921;BME280;61064;51.654;5.476;2023-06-14T02:41:34;101455.78;;;18.43;42.22
72921;BME280;61064;51.654;5.476;2023-06-14T02:44:00;101463.00;;;18.40;42.20
72921;BME280;61064;51.654;5.476;2023-06-14T02:46:25;101463.97;;;18.37;42.35
72921;BME280;61064;51.654;5.476;2023-06-14T02:48:50;101469.44;;;18.33;42.42
72921;BME280;61064;51.654;5.476;2023-06-14T02:51:16;101468.56;;;18.31;42.43
72921;BME280;61064;51.654;5.476;2023-06-14T02:53:41;101466.75;;;18.29;42.56
72921;BME280;61064;51.654;5.476;2023-06-14T02:56:06;101463.25;;;18.24;42.78
72921;BME280;61064;51.654;5.476;2023-06-14T02:58:32;101463.31;;;18.21;42.80
72921;BME280;61064;51.654;5.476;2023-06-14T03:00:58;101469.63;;;18.19;42.94
72921;BME280;61064;51.654;5.476;2023-06-14T03:03:28;101467.00;;;18.16;43.06
72921;BME280;61064;51.654;5.476;2023-06-14T03:05:55;101467.03;;;18.11;43.30
72921;BME280;61064;51.654;5.476;2023-06-14T03:08:21;101462.59;;;18.09;43.12
72921;BME280;61064;51.654;5.476;2023-06-14T03:10:51;101470.69;;;18.07;43.40
72921;BME280;61064;51.654;5.476;2023-06-14T03:13:18;101474.34;;;18.03;43.25
72921;BME280;61064;51.654;5.476;2023-06-14T03:15:47;101478.91;;;17.98;43.40
72921;BME280;61064;51.654;5.476;2023-06-14T03:18:15;101476.25;;;17.95;43.70
72921;BME280;61064;51.654;5.476;2023-06-14T03:20:42;101472.72;;;17.92;43.60
72921;BME280;61064;51.654;5.476;2023-06-14T03:23:08;101479.91;;;17.91;43.82
72921;BME280;61064;51.654;5.476;2023-06-14T03:25:35;101482.66;;;17.85;43.94
72921;BME280;61064;51.654;5.476;2023-06-14T03:28:05;101488.06;;;17.85;44.22
72921;BME280;61064;51.654;5.476;2023-06-14T03:30:34;101474.66;;;17.79;44.05
72921;BME280;61064;51.654;5.476;2023-06-14T03:32:59;101479.16;;;17.80;43.94
72921;BME280;61064;51.654;5.476;2023-06-14T03:35:29;101478.31;;;17.75;44.05
72921;BME280;61064;51.654;5.476;2023-06-14T03:37:54;101494.47;;;17.75;44.26
72921;BME280;61064;51.654;5.476;2023-06-14T03:40:20;101492.75;;;17.71;44.50
72921;BME280;61064;51.654;5.476;2023-06-14T03:42:51;101489.16;;;17.70;44.50
72921;BME280;61064;51.654;5.476;2023-06-14T03:45:17;101486.47;;;17.67;44.65
72921;BME280;61064;51.654;5.476;2023-06-14T03:47:44;101491.88;;;17.67;44.87
72921;BME280;61064;51.654;5.476;2023-06-14T03:50:10;101493.78;;;17.61;44.80
72921;BME280;61064;51.654;5.476;2023-06-14T03:52:36;101497.31;;;17.63;44.79
72921;BME280;61064;51.654;5.476;2023-06-14T03:55:02;101499.13;;;17.59;45.04
72921;BME280;61064;51.654;5.476;2023-06-14T03:57:29;101502.72;;;17.58;45.04
72921;BME280;61064;51.654;5.476;2023-06-14T03:59:55;101498.25;;;17.57;45.17
72921;BME280;61064;51.654;5.476;2023-06-14T04:02:20;101500.06;;;17.55;45.12
72921;BME280;61064;51.654;5.476;2023-06-14T04:04:46;101501.91;;;17.50;45.31
72921;BME280;61064;51.654;5.476;2023-06-14T04:07:14;101508.19;;;17.51;45.48
72921;BME280;61064;51.654;5.476;2023-06-14T04:09:39;101505.53;;;17.49;45.56
72921;BME280;61064;51.654;5.476;2023-06-14T04:12:06;101514.50;;;17.48;45.87
72921;BME280;61064;51.654;5.476;2023-06-14T04:14:31;101513.59;;;17.49;45.80
72921;BME280;61064;51.654;5.476;2023-06-14T04:16:58;101517.19;;;17.50;45.96
72921;BME280;61064;51.654;5.476;2023-06-14T04:19:24;101518.09;;;17.47;46.13
72921;BME280;61064;51.654;5.476;2023-06-14T04:21:49;101526.16;;;17.49;46.17
72921;BME280;61064;51.654;5.476;2023-06-14T04:24:15;101519.88;;;17.46;46.16
72921;BME280;61064;51.654;5.476;2023-06-14T04:26:44;101519.00;;;17.46;46.56
72921;BME280;61064;51.654;5.476;2023-06-14T04:29:15;101519.00;;;17.44;46.49
72921;BME280;61064;51.654;5.476;2023-06-14T04:31:45;101527.06;;;17.44;46.48
72921;BME280;61064;51.654;5.476;2023-06-14T04:34:12;101519.94;;;17.43;46.67
72921;BME280;61064;51.654;5.476;2023-06-14T04:36:41;101526.22;;;17.42;46.66
72921;BME280;61064;51.654;5.476;2023-06-14T04:39:12;101532.44;;;17.44;46.76
72921;BME280;61064;51.654;5.476;2023-06-14T04:41:38;101529.75;;;17.44;46.88
72921;BME280;61064;51.654;5.476;2023-06-14T04:44:03;101533.34;;;17.48;46.93
72921;BME280;61064;51.654;5.476;2023-06-14T04:46:29;101542.25;;;17.50;46.80
72921;BME280;61064;51.654;5.476;2023-06-14T04:48:55;101524.38;;;17.46;46.83
72921;BME280;61064;51.654;5.476;2023-06-14T04:51:21;101525.28;;;17.46;47.05
72921;BME280;61064;51.654;5.476;2023-06-14T04:53:55;101534.16;;;17.55;47.28
72921;BME280;61064;51.654;5.476;2023-06-14T04:56:23;101532.38;;;17.55;47.12
72921;BME280;61064;51.654;5.476;2023-06-14T04:58:50;101525.16;;;17.57;47.23
72921;BME280;61064;51.654;5.476;2023-06-14T05:01:15;101529.59;;;17.61;47.27
72921;BME280;61064;51.654;5.476;2023-06-14T05:03:41;101536.78;;;17.64;47.12
72921;BME280;61064;51.654;5.476;2023-06-14T05:06:06;101546.63;;;17.65;47.28
72921;BME280;61064;51.654;5.476;2023-06-14T05:08:31;101537.66;;;17.66;47.34
72921;BME280;61064;51.654;5.476;2023-06-14T05:10:57;101546.56;;;17.69;47.23
72921;BME280;61064;51.654;5.476;2023-06-14T05:13:23;101542.03;;;17.73;47.17
72921;BME280;61064;51.654;5.476;2023-06-14T05:15:48;101550.94;;;17.78;47.28
72921;BME280;61064;51.654;5.476;2023-06-14T05:18:14;101549.13;;;17.81;47.34
72921;BME280;61064;51.654;5.476;2023-06-14T05:20:40;101546.38;;;17.84;47.27
72921;BME280;61064;51.654;5.476;2023-06-14T05:23:07;101555.28;;;17.91;47.17
72921;BME280;61064;51.654;5.476;2023-06-14T05:25:32;101544.44;;;17.96;47.22
72921;BME280;61064;51.654;5.476;2023-06-14T05:27:58;101547.97;;;18.02;46.91
72921;BME280;61064;51.654;5.476;2023-06-14T05:30:23;101554.16;;;18.07;47.48
72921;BME280;61064;51.654;5.476;2023-06-14T05:32:48;101553.19;;;18.16;47.26
72921;BME280;61064;51.654;5.476;2023-06-14T05:35:14;101558.41;;;18.26;47.09
72921;BME280;61064;51.654;5.476;2023-06-14T05:37:39;101559.09;;;18.39;46.79
72921;BME280;61064;51.654;5.476;2023-06-14T05:40:05;101551.75;;;18.55;46.99
72921;BME280;61064;51.654;5.476;2023-06-14T05:42:32;101559.59;;;18.70;46.71
72921;BME280;61064;51.654;5.476;2023-06-14T05:44:57;101548.56;;;18.85;46.60
72921;BME280;61064;51.654;5.476;2023-06-14T05:47:23;101562.66;;;19.01;46.66
72921;BME280;61064;51.654;5.476;2023-06-14T05:49:48;101566.03;;;19.17;46.29
72921;BME280;61064;51.654;5.476;2023-06-14T05:52:13;101571.13;;;19.33;45.96
72921;BME280;61064;51.654;5.476;2023-06-14T05:54:39;101573.59;;;19.47;46.04
72921;BME280;61064;51.654;5.476;2023-06-14T05:57:05;101571.47;;;19.63;45.87
72921;BME280;61064;51.654;5.476;2023-06-14T05:59:31;101573.84;;;19.79;45.36
72921;BME280;61064;51.654;5.476;2023-06-14T06:01:57;101569.88;;;19.97;45.16
72921;BME280;61064;51.654;5.476;2023-06-14T06:04:23;101566.84;;;20.14;44.78
72921;BME280;61064;51.654;5.476;2023-06-14T06:06:48;101575.56;;;20.28;44.73
72921;BME280;61064;51.654;5.476;2023-06-14T06:09:13;101567.94;;;20.47;44.62
72921;BME280;61064;51.654;5.476;2023-06-14T06:11:42;101564.72;;;20.68;44.16
72921;BME280;61064;51.654;5.476;2023-06-14T06:14:07;101572.53;;;20.82;43.81
72921;BME280;61064;51.654;5.476;2023-06-14T06:16:32;101570.44;;;20.93;43.56
72921;BME280;61064;51.654;5.476;2023-06-14T06:18:58;101573.75;;;21.05;43.49
72921;BME280;61064;51.654;5.476;2023-06-14T06:21:24;101577.00;;;21.20;42.96
72921;BME280;61064;51.654;5.476;2023-06-14T06:23:49;101581.22;;;21.31;42.63
72921;BME280;61064;51.654;5.476;2023-06-14T06:26:15;101582.09;;;21.32;42.35
72921;BME280;61064;51.654;5.476;2023-06-14T06:28:40;101588.25;;;21.38;42.26
72921;BME280;61064;51.654;5.476;2023-06-14T06:31:06;101588.00;;;21.47;42.25
72921;BME280;61064;51.654;5.476;2023-06-14T06:33:31;101591.25;;;21.62;41.80
72921;BME280;61064;51.654;5.476;2023-06-14T06:35:57;101586.47;;;21.70;41.98
72921;BME280;61064;51.654;5.476;2023-06-14T06:38:22;101589.78;;;21.81;41.92
72921;BME280;61064;51.654;5.476;2023-06-14T06:40:47;101594.72;;;21.99;41.63
72921;BME280;61064;51.654;5.476;2023-06-14T06:43:13;101601.50;;;22.14;41.33
72921;BME280;61064;51.654;5.476;2023-06-14T06:45:42;101596.50;;;22.29;41.17
72921;BME280;61064;51.654;5.476;2023-06-14T06:48:07;101606.03;;;22.44;40.70
72921;BME280;61064;51.654;5.476;2023-06-14T06:50:34;101604.94;;;22.50;40.57
72921;BME280;61064;51.654;5.476;2023-06-14T06:53:00;101605.66;;;22.56;40.33
72921;BME280;61064;51.654;5.476;2023-06-14T06:55:25;101608.09;;;22.64;40.35
72921;BME280;61064;51.654;5.476;2023-06-14T06:57:50;101616.94;;;22.72;40.04
72921;BME280;61064;51.654;5.476;2023-06-14T07:00:17;101612.25;;;22.77;39.82
72921;BME280;61064;51.654;5.476;2023-06-14T07:02:43;101618.47;;;22.80;39.70
72921;BME280;61064;51.654;5.476;2023-06-14T07:05:08;101608.53;;;22.79;39.62
72921;BME280;61064;51.654;5.476;2023-06-14T07:07:34;101617.50;;;22.83;39.46
72921;BME280;61064;51.654;5.476;2023-06-14T07:09:59;101610.09;;;22.88;39.67
72921;BME280;61064;51.654;5.476;2023-06-14T07:12:25;101617.75;;;23.02;39.49
72921;BME280;61064;51.654;5.476;2023-06-14T07:14:51;101612.06;;;23.11;39.09
72921;BME280;61064;51.654;5.476;2023-06-14T07:17:16;101617.00;;;23.25;39.22
72921;BME280;61064;51.654;5.476;2023-06-14T07:19:41;101614.72;;;23.39;38.97
72921;BME280;61064;51.654;5.476;2023-06-14T07:22:07;101623.13;;;23.57;38.83
72921;BME280;61064;51.654;5.476;2023-06-14T07:24:32;101622.53;;;23.74;38.60
72921;BME280;61064;51.654;5.476;2023-06-14T07:26:58;101623.88;;;23.87;38.42
72921;BME280;61064;51.654;5.476;2023-06-14T07:29:23;101632.53;;;23.98;38.18
72921;BME280;61064;51.654;5.476;2023-06-14T07:31:49;101624.22;;;24.03;38.13
72921;BME280;61064;51.654;5.476;2023-06-14T07:34:14;101634.38;;;23.98;37.54
72921;BME280;61064;51.654;5.476;2023-06-14T07:36:40;101641.53;;;24.00;37.66
72921;BME280;61064;51.654;5.476;2023-06-14T07:39:05;101629.59;;;24.04;37.82
72921;BME280;61064;51.654;5.476;2023-06-14T07:41:32;101640.06;;;24.15;37.44
72921;BME280;61064;51.654;5.476;2023-06-14T07:43:57;101639.84;;;24.23;37.19
72921;BME280;61064;51.654;5.476;2023-06-14T07:46:23;101649.50;;;24.30;37.27
72921;BME280;61064;51.654;5.476;2023-06-14T07:48:48;101636.47;;;24.39;37.10
72921;BME280;61064;51.654;5.476;2023-06-14T07:51:13;101637.94;;;24.48;36.55
72921;BME280;61064;51.654;5.476;2023-06-14T07:53:39;101627.00;;;24.50;36.57
72921;BME280;61064;51.654;5.476;2023-06-14T07:56:06;101644.88;;;24.57;36.28
72921;BME280;61064;51.654;5.476;2023-06-14T07:58:31;101644.50;;;24.66;36.36
72921;BME280;61064;51.654;5.476;2023-06-14T08:00:56;101654.97;;;24.76;35.97
72921;BME280;61064;51.654;5.476;2023-06-14T08:03:22;101646.56;;;24.82;35.80
72921;BME280;61064;51.654;5.476;2023-06-14T08:05:47;101654.53;;;24.87;35.67
72921;BME280;61064;51.654;5.476;2023-06-14T08:08:13;101654.38;;;24.92;35.43
72921;BME280;61064;51.654;5.476;2023-06-14T08:10:38;101660.53;;;24.97;35.37
72921;BME280;61064;51.654;5.476;2023-06-14T08:13:04;101658.16;;;25.11;35.15
72921;BME280;61064;51.654;5.476;2023-06-14T08:15:29;101661.38;;;25.20;34.61
72921;BME280;61064;51.654;5.476;2023-06-14T08:17:54;101657.31;;;25.31;34.41
72921;BME280;61064;51.654;5.476;2023-06-14T08:20:20;101656.25;;;25.35;34.34
72921;BME280;61064;51.654;5.476;2023-06-14T08:22:45;101661.88;;;25.30;34.04
72921;BME280;61064;51.654;5.476;2023-06-14T08:25:13;101659.22;;;25.29;34.12
72921;BME280;61064;51.654;5.476;2023-06-14T08:27:38;101655.38;;;25.34;34.12
72921;BME280;61064;51.654;5.476;2023-06-14T08:30:04;101651.94;;;25.51;33.74
72921;BME280;61064;51.654;5.476;2023-06-14T08:32:30;101657.91;;;25.60;33.73
72921;BME280;61064;51.654;5.476;2023-06-14T08:34:55;101647.94;;;25.59;33.57
72921;BME280;61064;51.654;5.476;2023-06-14T08:37:20;101649.47;;;25.66;33.69
72921;BME280;61064;51.654;5.476;2023-06-14T08:39:46;101657.09;;;25.79;33.64
72921;BME280;61064;51.654;5.476;2023-06-14T08:42:12;101661.94;;;25.92;33.02
72921;BME280;61064;51.654;5.476;2023-06-14T08:44:39;101655.31;;;25.98;32.95
72921;BME280;61064;51.654;5.476;2023-06-14T08:47:05;101653.44;;;26.00;32.51
72921;BME280;61064;51.654;5.476;2023-06-14T08:49:32;101648.03;;;25.98;32.22
72921;BME280;61064;51.654;5.476;2023-06-14T08:51:59;101647.06;;;25.99;32.08
72921;BME280;61064;51.654;5.476;2023-06-14T08:54:26;101643.94;;;26.08;32.17
72921;BME280;61064;51.654;5.476;2023-06-14T08:56:53;101645.16;;;26.22;31.81
72921;BME280;61064;51.654;5.476;2023-06-14T08:59:24;101644.84;;;26.29;31.64
72921;BME280;61064;51.654;5.476;2023-06-14T09:01:51;101634.31;;;26.40;31.31
72921;BME280;61064;51.654;5.476;2023-06-14T09:04:18;101636.47;;;26.53;30.82
72921;BME280;61064;51.654;5.476;2023-06-14T09:06:45;101646.78;;;26.65;30.39
72921;BME280;61064;51.654;5.476;2023-06-14T09:09:10;101648.28;;;26.72;30.00
72921;BME280;61064;51.654;5.476;2023-06-14T09:11:36;101649.47;;;26.85;29.91
72921;BME280;61064;51.654;5.476;2023-06-14T09:14:01;101658.19;;;26.93;29.24
72921;BME280;61064;51.654;5.476;2023-06-14T09:16:27;101652.88;;;26.90;29.01
72921;BME280;61064;51.654;5.476;2023-06-14T09:18:53;101659.25;;;26.91;28.93
72921;BME280;61064;51.654;5.476;2023-06-14T09:21:19;101657.22;;;26.94;28.48
72921;BME280;61064;51.654;5.476;2023-06-14T09:23:47;101655.97;;;27.01;28.40
72921;BME280;61064;51.654;5.476;2023-06-14T09:26:15;101648.16;;;27.12;28.40
72921;BME280;61064;51.654;5.476;2023-06-14T09:28:44;101650.91;;;27.29;27.77
72921;BME280;61064;51.654;5.476;2023-06-14T09:31:11;101654.13;;;27.38;27.52
72921;BME280;61064;51.654;5.476;2023-06-14T09:33:37;101644.75;;;27.43;27.32
72921;BME280;61064;51.654;5.476;2023-06-14T09:36:04;101649.84;;;27.51;27.17
72921;BME280;61064;51.654;5.476;2023-06-14T09:38:30;101648.72;;;27.55;27.33
72921;BME280;61064;51.654;5.476;2023-06-14T09:40:58;101658.47;;;27.60;27.32
72921;BME280;61064;51.654;5.476;2023-06-14T09:43:24;101662.09;;;27.78;27.15
72921;BME280;61064;51.654;5.476;2023-06-14T09:45:53;101656.56;;;27.97;27.25
72921;BME280;61064;51.654;5.476;2023-06-14T09:48:19;101663.94;;;28.12;26.85
72921;BME280;61064;51.654;5.476;2023-06-14T09:50:45;101663.66;;;28.18;26.74
72921;BME280;61064;51.654;5.476;2023-06-14T09:53:13;101670.00;;;28.19;26.65
72921;BME280;61064;51.654;5.476;2023-06-14T09:55:40;101664.59;;;28.17;26.40
72921;BME280;61064;51.654;5.476;2023-06-14T09:58:07;101659.38;;;28.13;26.53
72921;BME280;61064;51.654;5.476;2023-06-14T10:00:34;101663.03;;;28.11;26.48
72921;BME280;61064;51.654;5.476;2023-06-14T10:03:14;101659.69;;;28.06;26.44
72921;BME280;61064;51.654;5.476;2023-06-14T10:05:43;101660.31;;;28.11;26.48
72921;BME280;61064;51.654;5.476;2023-06-14T10:08:14;101659.75;;;28.05;26.35
72921;BME280;61064;51.654;5.476;2023-06-14T10:10:42;101658.22;;;27.99;26.67
72921;BME280;61064;51.654;5.476;2023-06-14T10:13:08;101644.47;;;28.01;26.75
72921;BME280;61064;51.654;5.476;2023-06-14T10:18:33;101642.63;;;28.19;27.10
72921;BME280;61064;51.654;5.476;2023-06-14T10:21:20;101646.56;;;28.30;27.06
72921;BME280;61064;51.654;5.476;2023-06-14T10:23:48;101635.78;;;28.43;26.78
72921;BME280;61064;51.654;5.476;2023-06-14T10:26:22;101646.34;;;28.50;26.70
72921;BME280;61064;51.654;5.476;2023-06-14T10:29:07;101634.41;;;28.51;26.75
72921;BME280;61064;51.654;5.476;2023-06-14T10:32:00;101621.09;;;28.61;26.77
72921;BME280;61064;51.654;5.476;2023-06-14T10:34:27;101638.53;;;28.76;26.14
72921;BME280;61064;51.654;5.476;2023-06-14T10:37:07;101636.44;;;28.81;25.85
72921;BME280;61064;51.654;5.476;2023-06-14T10:39:40;101639.53;;;28.90;25.95
72921;BME280;61064;51.654;5.476;2023-06-14T10:42:06;101646.59;;;28.94;26.18
72921;BME280;61064;51.654;5.476;2023-06-14T10:44:33;101646.44;;;28.98;25.94
72921;BME280;61064;51.654;5.476;2023-06-14T10:46:59;101652.78;;;28.98;25.75
72921;BME280;61064;51.654;5.476;2023-06-14T10:49:44;101631.13;;;28.93;25.97
72921;BME280;61064;51.654;5.476;2023-06-14T10:52:12;101648.28;;;29.13;25.83
72921;BME280;61064;51.654;5.476;2023-06-14T10:55:02;101644.63;;;29.28;25.65
72921;BME280;61064;51.654;5.476;2023-06-14T10:57:29;101632.38;;;29.35;25.04
72921;BME280;61064;51.654;5.476;2023-06-14T10:59:58;101628.03;;;29.31;25.39
72921;BME280;61064;51.654;5.476;2023-06-14T11:05:03;101628.47;;;29.23;25.40
72921;BME280;61064;51.654;5.476;2023-06-14T11:10:41;101643.75;;;29.27;26.35
72921;BME280;61064;51.654;5.476;2023-06-14T11:13:08;101628.47;;;29.39;26.10
72921;BME280;61064;51.654;5.476;2023-06-14T11:15:35;101635.75;;;29.54;25.99
72921;BME280;61064;51.654;5.476;2023-06-14T11:18:03;101639.91;;;29.61;26.09
72921;BME280;61064;51.654;5.476;2023-06-14T11:20:31;101632.47;;;29.63;25.44
72921;BME280;61064;51.654;5.476;2023-06-14T11:22:57;101638.06;;;29.62;25.63
72921;BME280;61064;51.654;5.476;2023-06-14T11:25:23;101641.59;;;29.64;25.91
72921;BME280;61064;51.654;5.476;2023-06-14T11:27:52;101631.75;;;29.75;25.77
72921;BME280;61064;51.654;5.476;2023-06-14T11:30:17;101632.69;;;29.90;25.91
72921;BME280;61064;51.654;5.476;2023-06-14T11:32:49;101623.91;;;29.84;25.88
72921;BME280;61064;51.654;5.476;2023-06-14T11:35:16;101645.81;;;29.69;26.12
72921;BME280;61064;51.654;5.476;2023-06-14T11:37:42;101627.16;;;29.60;26.07
72921;BME280;61064;51.654;5.476;2023-06-14T11:40:10;101630.78;;;29.61;26.00
72921;BME280;61064;51.654;5.476;2023-06-14T11:42:37;101626.78;;;29.66;25.58
72921;BME280;61064;51.654;5.476;2023-06-14T11:45:03;101625.16;;;29.78;25.53
72921;BME280;61064;51.654;5.476;2023-06-14T11:47:38;101623.31;;;29.79;25.95
72921;BME280;61064;51.654;5.476;2023-06-14T11:50:05;101620.19;;;29.85;25.78
72921;BME280;61064;51.654;5.476;2023-06-14T11:52:32;101623.34;;;29.93;25.88
72921;BME280;61064;51.654;5.476;2023-06-14T11:54:58;101633.28;;;29.95;25.67
72921;BME280;61064;51.654;5.476;2023-06-14T11:57:24;101621.06;;;29.85;25.58
72921;BME280;61064;51.654;5.476;2023-06-14T11:59:50;101621.63;;;29.76;25.68
72921;BME280;61064;51.654;5.476;2023-06-14T12:02:17;101625.47;;;29.88;25.84
72921;BME280;61064;51.654;5.476;2023-06-14T12:04:43;101627.78;;;29.95;25.94
72921;BME280;61064;51.654;5.476;2023-06-14T12:07:13;101622.50;;;29.92;25.77
72921;BME280;61064;51.654;5.476;2023-06-14T12:10:03;101619.09;;;29.87;26.23
72921;BME280;61064;51.654;5.476;2023-06-14T12:12:35;101619.09;;;29.87;26.23
72921;BME280;61064;51.654;5.476;2023-06-14T12:15:03;101628.59;;;29.97;26.36
72921;BME280;61064;51.654;5.476;2023-06-14T12:17:32;101615.66;;;30.13;26.12
72921;BME280;61064;51.654;5.476;2023-06-14T12:19:57;101614.78;;;30.27;26.05
72921;BME280;61064;51.654;5.476;2023-06-14T12:22:22;101627.81;;;30.38;25.50
72921;BME280;61064;51.654;5.476;2023-06-14T12:24:48;101624.00;;;30.40;25.49
72921;BME280;61064;51.654;5.476;2023-06-14T12:27:14;101609.28;;;30.27;25.60
72921;BME280;61064;51.654;5.476;2023-06-14T12:29:44;101618.78;;;30.22;25.41
72921;BME280;61064;51.654;5.476;2023-06-14T12:32:10;101625.84;;;30.11;24.90
72921;BME280;61064;51.654;5.476;2023-06-14T12:34:36;101621.91;;;30.01;25.08
72921;BME280;61064;51.654;5.476;2023-06-14T12:37:02;101623.78;;;30.01;24.74
72921;BME280;61064;51.654;5.476;2023-06-14T12:39:29;101624.06;;;29.96;25.06
72921;BME280;61064;51.654;5.476;2023-06-14T12:41:57;101634.34;;;29.93;25.18
72921;BME280;61064;51.654;5.476;2023-06-14T12:44:22;101631.25;;;29.83;24.82
72921;BME280;61064;51.654;5.476;2023-06-14T12:46:48;101624.66;;;29.71;24.98
72921;BME280;61064;51.654;5.476;2023-06-14T12:49:16;101607.50;;;29.68;24.73
72921;BME280;61064;51.654;5.476;2023-06-14T12:51:41;101626.88;;;29.65;25.17
72921;BME280;61064;51.654;5.476;2023-06-14T12:54:07;101630.13;;;29.71;25.43
72921;BME280;61064;51.654;5.476;2023-06-14T12:56:32;101619.31;;;29.84;25.12
72921;BME280;61064;51.654;5.476;2023-06-14T12:58:58;101617.88;;;29.93;25.22
72921;BME280;61064;51.654;5.476;2023-06-14T13:01:23;101624.19;;;30.09;24.99
72921;BME280;61064;51.654;5.476;2023-06-14T13:03:49;101626.25;;;30.20;25.29